Time;durP1;ratioP1;P1;durP2;ratioP2;P2;SDS_P1;SDS_P2;PMS_P1;PMS_P2;Temp;Humidity;BMP_temperature;BMP_pressure;BME280_temperature;BME280_humidity;BME280_pressure;Samples;Min_cycle;Max_cycle;Signal;HPM_P1;HPM_P2
2022/09/01 00:00:28;;;;;;;32.47;26.10;;;;;;;21.63;100.00;96609.75;5021077;28;20471;-48
2022/09/01 00:02:57;;;;;;;34.22;26.30;;;;;;;21.44;100.00;96616.81;5023251;28;20069;-51
2022/09/01 00:05:25;;;;;;;33.40;26.25;;;;;;;21.61;100.00;96610.97;5021860;28;20065;-53
2022/09/01 00:07:55;;;;;;;34.08;25.80;;;;;;;21.39;100.00;96613.91;5022133;28;20461;-51
2022/09/01 00:10:24;;;;;;;35.22;26.10;;;;;;;21.37;100.00;96607.09;5022723;28;20072;-46
2022/09/01 00:12:52;;;;;;;31.20;24.75;;;;;;;21.47;100.00;96612.88;5022944;28;20092;-49
2022/09/01 00:15:21;;;;;;;32.05;24.95;;;;;;;21.17;100.00;96620.53;5019696;28;20504;-46
2022/09/01 00:17:49;;;;;;;34.72;26.58;;;;;;;21.41;100.00;96603.81;5021148;28;20069;-47
2022/09/01 00:20:18;;;;;;;31.98;26.23;;;;;;;21.34;100.00;96613.72;5015355;28;20085;-46
2022/09/01 00:22:48;;;;;;;33.30;24.90;;;;;;;21.11;100.00;96616.81;5017036;28;20077;-46
2022/09/01 00:25:19;;;;;;;32.78;25.50;;;;;;;21.29;100.00;96613.47;5019500;28;20080;-46
2022/09/01 00:27:48;;;;;;;32.90;25.60;;;;;;;20.98;100.00;96612.25;5022701;28;20084;-49
2022/09/01 00:30:17;;;;;;;33.03;24.38;;;;;;;20.90;100.00;96608.97;5021236;28;20065;-49
2022/09/01 00:32:45;;;;;;;35.13;24.60;;;;;;;21.15;100.00;96609.16;5021427;28;20504;-52
2022/09/01 00:35:15;;;;;;;31.52;24.70;;;;;;;20.50;100.00;96615.09;5019438;28;20425;-51
2022/09/01 00:37:43;;;;;;;30.52;23.80;;;;;;;21.24;100.00;96607.94;5023157;28;20080;-45
2022/09/01 00:40:14;;;;;;;32.47;25.50;;;;;;;20.78;100.00;96612.25;5019593;28;20084;-50
2022/09/01 00:42:47;;;;;;;33.38;25.58;;;;;;;21.20;100.00;96607.53;5022579;28;20450;-49
2022/09/01 00:45:16;;;;;;;34.30;24.35;;;;;;;20.31;100.00;96605.97;5017069;28;20075;-50
2022/09/01 00:47:44;;;;;;;32.30;25.13;;;;;;;20.79;100.00;96603.19;5019896;28;20061;-52
2022/09/01 00:50:15;;;;;;;32.25;25.58;;;;;;;20.69;100.00;96600.09;5020476;28;20067;-50
2022/09/01 00:52:46;;;;;;;34.38;24.35;;;;;;;20.62;100.00;96599.28;5022385;28;20471;-50
2022/09/01 00:55:18;;;;;;;31.45;24.10;;;;;;;20.43;100.00;96603.53;5019722;28;20077;-51
2022/09/01 00:57:48;;;;;;;32.38;25.60;;;;;;;20.70;100.00;96601.75;5017672;28;20601;-45
2022/09/01 01:00:19;;;;;;;32.55;24.75;;;;;;;20.67;100.00;96599.47;5018368;28;20084;-47
2022/09/01 01:02:52;;;;;;;35.83;25.77;;;;;;;20.99;100.00;96595.16;5019753;28;20084;-49
2022/09/01 01:05:22;;;;;;;31.63;24.95;;;;;;;21.56;100.00;96601.69;5018423;28;20515;-52
2022/09/01 01:07:50;;;;;;;30.67;23.60;;;;;;;21.40;100.00;96594.09;5022814;28;20073;-51
2022/09/01 01:10:22;;;;;;;33.70;24.50;;;;;;;21.13;100.00;96595.13;5018009;28;20109;-48
2022/09/01 01:12:52;;;;;;;35.97;25.50;;;;;;;21.10;100.00;96602.56;5016139;28;20080;-49
2022/09/01 01:15:21;;;;;;;34.47;25.80;;;;;;;21.42;100.00;96588.53;5018453;28;20069;-51
2022/09/01 01:17:49;;;;;;;35.53;23.90;;;;;;;21.37;100.00;96588.31;5022539;28;20069;-53
2022/09/01 01:23:12;;;;;;;32.35;23.48;;;;;;;21.01;100.00;96593.09;5016552;28;20078;-51
2022/09/01 01:25:44;;;;;;;32.97;25.00;;;;;;;21.02;100.00;96586.69;5018616;28;20081;-46
2022/09/01 01:28:15;;;;;;;32.65;23.92;;;;;;;21.27;100.00;96586.06;5019333;28;20487;-52
2022/09/01 01:30:51;;;;;;;31.63;23.35;;;;;;;20.69;100.00;96591.25;5020820;28;20073;-45
2022/09/01 01:33:21;;;;;;;34.78;25.98;;;;;;;21.01;100.00;96594.94;5016875;28;20082;-50
2022/09/01 01:35:51;;;;;;;32.40;24.15;;;;;;;21.09;100.00;96590.22;5024124;28;20085;-50
2022/09/01 01:38:21;;;;;;;35.78;25.10;;;;;;;20.60;100.00;96586.06;5019070;28;20081;-50
2022/09/01 01:40:52;;;;;;;;;;;;;;;20.52;100.00;96582.75;5018208;28;20091;-50
2022/09/01 01:43:21;;;;;;;;;;;;;;;21.09;100.00;96589.34;5017205;28;20396;-54
2022/09/01 01:45:52;;;;;;;32.13;23.85;;;;;;;20.95;100.00;96590.41;5018009;28;19956;-46
2022/09/01 01:48:23;;;;;;;36.85;25.25;;;;;;;20.59;100.00;96584.41;5020009;28;20089;-51
2022/09/01 01:50:53;;;;;;;33.60;25.38;;;;;;;20.80;100.00;96582.56;5020587;28;20483;-47
2022/09/01 01:53:22;;;;;;;34.17;24.13;;;;;;;20.89;100.00;96584.03;5018290;28;20104;-50
2022/09/01 01:55:51;;;;;;;36.50;26.70;;;;;;;20.81;100.00;96568.13;5019676;28;20500;-49
2022/09/01 01:58:23;;;;;;;34.38;24.10;;;;;;;20.51;100.00;96578.41;5017139;28;20081;-46
2022/09/01 02:00:53;;;;;;;36.13;25.73;;;;;;;20.67;100.00;96569.16;5024599;28;20084;-52
2022/09/01 02:03:23;;;;;;;;;;;;;;;20.70;100.00;96569.59;5027955;28;20089;-50
2022/09/01 02:05:53;;;;;;;37.13;24.95;;;;;;;20.10;100.00;96572.13;5025229;28;19983;-50
2022/09/01 02:08:24;;;;;;;38.45;25.50;;;;;;;20.80;100.00;96574.53;5028719;28;20112;-46
2022/09/01 02:10:56;;;;;;;33.35;24.40;;;;;;;21.00;100.00;96566.50;5021790;28;20081;-45
2022/09/01 02:13:29;;;;;;;37.15;24.40;;;;;;;;;;5023491;28;20084;-53
2022/09/01 02:16:00;;;;;;;33.63;25.10;;;;;;;21.07;100.00;96565.44;5019624;28;20077;-47
2022/09/01 02:18:33;;;;;;;35.78;24.42;;;;;;;20.93;100.00;96560.31;5016794;28;20073;-50
2022/09/01 02:21:02;;;;;;;32.35;24.00;;;;;;;21.16;100.00;96567.91;5016296;28;20072;-48
2022/09/01 02:23:31;;;;;;;34.70;24.30;;;;;;;20.61;100.00;96570.81;5015077;28;20654;-48
2022/09/01 02:26:01;;;;;;;31.52;23.90;;;;;;;20.83;100.00;96566.91;5016637;28;20081;-52
2022/09/01 02:28:44;;;;;;;31.83;23.95;;;;;;;;;;5015918;28;20081;-48
2022/09/01 02:31:12;;;;;;;32.80;24.20;;;;;;;20.83;100.00;96563.41;5011892;28;20108;-54
2022/09/01 02:33:44;;;;;;;30.63;23.95;;;;;;;20.65;100.00;96571.22;5017104;28;20073;-48
2022/09/01 02:36:16;;;;;;;33.25;24.02;;;;;;;21.07;100.00;96570.81;5014331;28;20152;-50
2022/09/01 02:38:47;;;;;;;29.38;22.48;;;;;;;21.18;100.00;96557.81;5015937;28;20064;-50
2022/09/01 02:41:23;;;;;;;32.70;23.40;;;;;;;20.87;100.00;96575.34;5014992;28;20070;-51
2022/09/01 02:43:52;;;;;;;34.67;23.77;;;;;;;21.21;100.00;96562.75;5021650;28;20104;-50
2022/09/01 02:46:22;;;;;;;31.92;23.08;;;;;;;21.10;100.00;96565.03;5021180;28;20087;-49
2022/09/01 02:48:53;;;;;;;31.38;23.58;;;;;;;20.95;100.00;96563.59;5025521;28;20519;-48
2022/09/01 02:51:24;;;;;;;34.00;24.35;;;;;;;20.98;100.00;96566.69;5021836;28;20096;-48
2022/09/01 02:53:53;;;;;;;33.28;22.38;;;;;;;21.16;100.00;96567.91;5020876;28;20080;-54
2022/09/01 02:56:26;;;;;;;33.15;22.95;;;;;;;20.98;100.00;96560.50;5020847;28;20494;-45
2022/09/01 02:58:55;;;;;;;30.67;22.88;;;;;;;20.94;100.00;96562.78;5016901;28;20111;-46
2022/09/01 03:01:25;;;;;;;32.47;23.45;;;;;;;21.09;100.00;96562.53;5020476;28;20092;-48
2022/09/01 03:03:55;;;;;;;31.23;22.58;;;;;;;20.98;100.00;96569.38;5019361;28;20480;-51
2022/09/01 03:06:24;;;;;;;31.58;23.17;;;;;;;21.19;100.00;96565.63;5025571;28;20085;-48
2022/09/01 03:08:55;;;;;;;33.80;23.13;;;;;;;21.06;100.00;96563.81;5022581;28;20092;-47
2022/09/01 03:11:24;;;;;;;31.60;23.02;;;;;;;20.79;100.00;96560.31;5024087;28;20081;-45
2022/09/01 03:13:53;;;;;;;32.83;21.88;;;;;;;21.19;100.00;96556.75;5022538;28;20081;-47
2022/09/01 03:16:22;;;;;;;30.73;22.35;;;;;;;21.45;100.00;96553.25;5024505;28;20101;-50
2022/09/01 03:18:51;;;;;;;28.73;21.80;;;;;;;21.40;100.00;96556.53;5015357;28;20130;-46
2022/09/01 03:21:19;;;;;;;28.83;21.67;;;;;;;21.16;100.00;96560.69;5024851;28;20088;-50
2022/09/01 03:23:49;;;;;;;29.90;22.83;;;;;;;21.00;100.00;96559.28;5025213;28;20543;-51
2022/09/01 03:26:20;;;;;;;32.17;22.57;;;;;;;21.11;100.00;96563.19;5022763;28;20109;-49
2022/09/01 03:28:51;;;;;;;31.67;22.25;;;;;;;21.15;100.00;96556.34;5020402;28;20559;-48
2022/09/01 03:31:20;;;;;;;28.67;22.05;;;;;;;20.97;100.00;96562.38;5014834;28;20081;-52
2022/09/01 03:33:49;;;;;;;33.15;23.45;;;;;;;21.15;100.00;96559.03;5014476;28;20065;-52
2022/09/01 03:36:18;;;;;;;31.00;22.48;;;;;;;21.13;100.00;96549.53;5016855;28;20100;-53
2022/09/01 03:38:49;;;;;;;33.55;22.70;;;;;;;21.31;100.00;96547.88;5018787;28;20081;-52
2022/09/01 03:41:20;;;;;;;36.88;22.88;;;;;;;21.20;100.00;96547.69;5010700;28;20080;-53
2022/09/01 03:43:53;;;;;;;30.73;23.13;;;;;;;21.19;100.00;96552.22;5017622;28;20572;-46
2022/09/01 03:46:23;;;;;;;32.00;22.63;;;;;;;21.28;100.00;96544.78;5017918;28;20078;-45
2022/09/01 03:48:53;;;;;;;30.88;22.85;;;;;;;21.23;100.00;96545.41;5021035;28;20088;-54
2022/09/01 03:51:24;;;;;;;30.85;22.95;;;;;;;21.30;100.00;96546.22;5030225;28;20080;-47
2022/09/01 03:53:54;;;;;;;30.10;22.65;;;;;;;21.39;100.00;96535.28;5030063;28;20076;-45
2022/09/01 03:56:26;;;;;;;35.80;24.00;;;;;;;20.98;100.00;96547.91;5024371;28;20103;-45
2022/09/01 03:58:58;;;;;;;31.40;22.08;;;;;;;21.33;100.00;96547.66;5030723;28;20088;-48
2022/09/01 04:01:28;;;;;;;34.97;23.42;;;;;;;21.27;100.00;96540.47;5027367;28;20471;-49
2022/09/01 04:03:56;;;;;;;34.17;23.95;;;;;;;21.10;100.00;96535.53;5025831;28;20077;-48
2022/09/01 04:06:25;;;;;;;32.08;22.85;;;;;;;21.21;100.00;96533.25;5030959;28;20088;-46
2022/09/01 04:08:56;;;;;;;34.47;23.95;;;;;;;20.98;100.00;96537.19;5030377;28;20050;-47
2022/09/01 04:11:25;;;;;;;31.83;24.13;;;;;;;21.06;100.00;96528.94;5030441;28;20563;-47
2022/09/01 04:13:53;;;;;;;38.58;25.88;;;;;;;21.03;100.00;96532.03;5030352;28;20076;-46
2022/09/01 04:19:19;;;;;;;31.65;23.88;;;;;;;21.14;100.00;96535.94;5030078;28;20085;-49
2022/09/01 04:21:50;;;;;;;34.03;23.75;;;;;;;21.09;100.00;96531.22;5030552;28;20473;-46
2022/09/01 04:24:19;;;;;;;34.53;23.60;;;;;;;20.69;100.00;96534.97;5024287;28;20084;-51
2022/09/01 04:26:48;;;;;;;34.33;23.77;;;;;;;20.71;100.00;96532.88;5030340;28;20072;-51
2022/09/01 04:29:18;;;;;;;33.33;24.77;;;;;;;20.67;100.00;96535.16;5029749;28;20101;-52
2022/09/01 04:31:50;;;;;;;36.42;23.90;;;;;;;20.90;100.00;96536.59;5025278;28;20088;-48
2022/09/01 04:34:20;;;;;;;34.97;24.52;;;;;;;21.09;100.00;96536.56;5030451;28;20096;-47
2022/09/01 04:36:54;;;;;;;34.00;24.90;;;;;;;20.79;100.00;96543.41;5023552;28;20082;-50
2022/09/01 04:39:24;;;;;;;36.05;25.15;;;;;;;20.62;100.00;96543.81;5029728;28;20077;-49
2022/09/01 04:41:52;;;;;;;37.33;24.70;;;;;;;20.46;100.00;96538.00;5029958;28;20103;-50
2022/09/01 04:44:21;;;;;;;33.72;23.70;;;;;;;20.45;100.00;96542.53;5027889;28;20081;-49
2022/09/01 04:46:51;;;;;;;32.10;23.60;;;;;;;20.78;100.00;96529.16;5029319;28;20089;-49
2022/09/01 04:49:21;;;;;;;33.95;23.58;;;;;;;20.96;100.00;96536.59;5028542;28;20091;-47
2022/09/01 04:51:51;;;;;;;32.20;23.52;;;;;;;20.87;100.00;96529.78;5029910;28;20119;-48
2022/09/01 04:54:23;;;;;;;34.20;22.63;;;;;;;20.82;100.00;96540.31;5029810;28;20524;-48
2022/09/01 04:56:53;;;;;;;31.55;22.33;;;;;;;20.95;100.00;96529.56;5029273;28;20049;-48
2022/09/01 04:59:25;;;;;;;30.52;22.65;;;;;;;20.90;100.00;96533.91;5026013;28;20085;-57
2022/09/01 05:01:59;;;;;;;31.23;21.77;;;;;;;21.06;100.00;96534.31;5029569;28;20089;-51
2022/09/01 05:04:32;;;;;;;28.42;21.83;;;;;;;21.15;100.00;96526.03;5029734;28;20080;-48
2022/09/01 05:07:01;;;;;;;28.25;20.58;;;;;;;21.08;100.00;96529.53;5023791;28;20484;-50
2022/09/01 05:09:31;;;;;;;33.42;22.15;;;;;;;20.87;100.00;96535.16;5028500;28;20069;-48
2022/09/01 05:12:09;;;;;;;31.10;22.08;;;;;;;21.14;100.00;96533.25;5026402;28;20092;-52
2022/09/01 05:14:47;;;;;;;27.67;21.23;;;;;;;21.11;100.00;96539.03;5028466;28;20463;-48
2022/09/01 05:17:17;;;;;;;29.35;21.05;;;;;;;20.96;100.00;96533.09;5029406;28;20065;-48
2022/09/01 05:19:49;;;;;;;29.63;21.50;;;;;;;21.40;100.00;96535.06;5028735;28;20100;-49
2022/09/01 05:22:20;;;;;;;26.95;20.17;;;;;;;21.56;100.00;96537.28;5028660;28;20072;-51
2022/09/01 05:24:50;;;;;;;28.98;20.38;;;;;;;21.43;100.00;96539.19;5028315;28;20637;-50
2022/09/01 05:27:22;;;;;;;31.33;20.75;;;;;;;21.43;100.00;96542.69;5027749;28;20065;-50
2022/09/01 05:29:52;;;;;;;28.55;20.67;;;;;;;21.47;100.00;96527.00;5028322;28;20096;-51
2022/09/01 05:32:24;;;;;;;25.92;19.70;;;;;;;21.82;100.00;96535.56;5026993;28;20061;-50
2022/09/01 05:34:53;;;;;;;28.40;21.02;;;;;;;21.75;100.00;96530.22;5023528;28;20523;-55
2022/09/01 05:37:22;;;;;;;27.27;20.52;;;;;;;21.33;100.00;96526.19;5029304;28;20084;-52
2022/09/01 05:39:51;;;;;;;25.25;20.00;;;;;;;21.61;100.00;96533.16;5028540;28;20084;-46
2022/09/01 05:42:20;;;;;;;25.58;19.83;;;;;;;20.97;100.00;96540.09;5028527;28;20089;-53
2022/09/01 05:44:49;;;;;;;28.17;21.42;;;;;;;21.43;100.00;96541.88;5025273;28;20783;-45
2022/09/01 05:47:22;;;;;;;27.00;19.38;;;;;;;20.99;100.00;96538.00;5028557;28;20088;-56
2022/09/01 05:49:52;;;;;;;27.90;20.27;;;;;;;21.79;100.00;96527.94;5028911;28;20092;-46
2022/09/01 05:52:24;;;;;;;28.73;21.52;;;;;;;21.01;100.00;96530.59;5028378;28;20065;-47
2022/09/01 05:54:54;;;;;;;30.35;21.92;;;;;;;21.81;100.00;96534.72;5021502;28;20073;-48
2022/09/01 05:57:23;;;;;;;28.65;21.90;;;;;;;21.94;100.00;96539.19;5027961;28;20072;-51
2022/09/01 06:00:09;;;;;;;29.27;21.98;;;;;;;22.05;100.00;96535.81;5028626;28;20700;-48
2022/09/01 06:02:41;;;;;;;27.58;21.80;;;;;;;22.14;100.00;96530.22;5028234;28;20069;-49
2022/09/01 06:05:10;;;;;;;27.58;21.23;;;;;;;22.04;100.00;96528.81;5029436;28;20069;-52
2022/09/01 06:07:41;;;;;;;27.95;21.25;;;;;;;21.44;100.00;96535.47;5029153;28;20065;-52
2022/09/01 06:10:10;;;;;;;26.10;21.35;;;;;;;21.98;100.00;96532.34;5022262;28;20081;-49
2022/09/01 06:12:39;;;;;;;28.42;21.63;;;;;;;21.60;100.00;96545.75;5021936;28;20084;-51
2022/09/01 06:15:14;;;;;;;27.73;21.42;;;;;;;21.47;100.00;96543.09;5028511;28;20421;-52
2022/09/01 06:17:48;;;;;;;28.67;22.13;;;;;;;22.16;100.00;96537.06;5031666;28;20041;-49
2022/09/01 06:20:17;;;;;;;27.20;20.58;;;;;;;21.97;100.00;96548.69;5032067;28;20069;-46
2022/09/01 06:22:46;;;;;;;29.90;21.95;;;;;;;21.96;100.00;96541.69;5027769;28;20082;-49
2022/09/01 06:25:16;;;;;;;30.90;21.27;;;;;;;22.38;100.00;96534.84;5032708;28;20081;-48
2022/09/01 06:27:46;;;;;;;30.33;20.67;;;;;;;22.44;100.00;96541.22;5031676;28;20109;-49
2022/09/01 06:30:19;;;;;;;31.65;21.85;;;;;;;21.83;100.00;96557.84;5031392;28;20555;-46
2022/09/01 06:32:52;;;;;;;28.10;21.40;;;;;;;22.11;100.00;96549.44;5032047;28;20077;-51
2022/09/01 06:35:23;;;;;;;26.27;19.98;;;;;;;21.84;100.00;96551.44;5031991;28;20081;-49
2022/09/01 06:37:53;;;;;;;25.48;21.20;;;;;;;22.01;100.00;96541.84;5029148;28;20151;-45
2022/09/01 06:40:24;;;;;;;25.90;20.80;;;;;;;22.31;100.00;96546.69;5026843;28;20141;-47
2022/09/01 06:42:53;;;;;;;25.20;20.27;;;;;;;21.34;100.00;96557.41;5032107;28;20065;-51
2022/09/01 06:45:23;;;;;;;25.15;19.23;;;;;;;22.08;100.00;96556.06;5031870;28;20085;-50
2022/09/01 06:47:54;;;;;;;27.23;20.88;;;;;;;22.10;100.00;96556.69;5031881;28;20091;-45
2022/09/01 06:50:28;;;;;;;23.50;18.88;;;;;;;22.45;100.00;96557.13;5029282;28;20076;-56
2022/09/01 06:53:17;;;;;;;26.42;20.05;;;;;;;21.83;100.00;96558.69;5031396;28;20081;-47
2022/09/01 06:56:07;;;;;;;23.40;17.73;;;;;;;22.08;100.00;96556.06;5024830;28;20073;-51
2022/09/01 06:58:39;;;;;;;20.08;16.30;;;;;;;21.45;100.00;96566.66;5030066;28;20089;-48
2022/09/01 07:01:13;;;;;;;23.58;18.83;;;;;;;21.51;100.00;96568.50;5031715;28;20084;-54
2022/09/01 07:03:44;;;;;;;20.25;16.55;;;;;;;21.76;100.00;96571.31;5031953;28;20567;-53
2022/09/01 07:06:13;;;;;;;19.83;15.85;;;;;;;21.96;100.00;96571.22;5030285;28;20080;-48
2022/09/01 07:09:01;;;;;;;17.52;14.30;;;;;;;21.08;100.00;96579.69;5031694;28;20077;-47
2022/09/01 07:11:51;;;;;;;19.13;14.13;;;;;;;21.77;100.00;96581.00;5028185;28;20085;-46
2022/09/01 07:14:39;;;;;;;16.52;13.35;;;;;;;21.60;100.00;96579.81;5030955;28;20084;-52
2022/09/01 07:17:29;;;;;;;17.38;13.90;;;;;;;22.07;100.00;96577.78;5025184;28;20096;-47
2022/09/01 07:19:59;;;;;;;15.75;13.02;;;;;;;22.73;100.00;96572.84;5025317;28;20089;-56
2022/09/01 07:22:47;;;;;;;16.43;13.50;;;;;;;22.54;100.00;96579.19;5031236;28;20084;-52
2022/09/01 07:25:37;;;;;;;18.10;14.98;;;;;;;21.76;100.00;96590.09;5026456;28;20515;-50
2022/09/01 07:28:31;;;;;;;16.85;14.52;;;;;;;22.19;100.00;96581.44;5028299;28;20081;-48
2022/09/01 07:31:07;;;;;;;;;;;;;;;21.43;100.00;96590.19;5031609;28;20065;-52
2022/09/01 07:33:58;;;;;;;15.98;12.30;;;;;;;21.55;100.00;96585.81;5018915;28;19945;-50
2022/09/01 07:36:48;;;;;;;15.60;13.98;;;;;;;22.10;100.00;96586.22;5028009;28;20108;-46
2022/09/01 07:39:37;;;;;;;16.55;14.75;;;;;;;21.91;100.00;96590.63;5030904;28;20092;-50
2022/09/01 07:42:26;;;;;;;16.88;15.07;;;;;;;22.62;100.00;96586.16;5026797;28;20081;-54
2022/09/01 07:45:16;;;;;;;15.98;14.27;;;;;;;22.04;100.00;96595.97;5030824;28;20089;-51
2022/09/01 07:47:53;;;;;;;16.63;14.68;;;;;;;21.84;100.00;96602.44;5019984;28;20081;-52
2022/09/01 07:50:27;;;;;;;16.30;14.60;;;;;;;21.94;100.00;96597.44;5030384;28;20464;-54
2022/09/01 07:53:18;;;;;;;17.48;14.73;;;;;;;22.23;100.00;96602.31;5030661;28;20077;-53
2022/09/01 07:55:48;;;;;;;16.38;14.57;;;;;;;21.91;100.00;96605.94;5031046;28;20595;-49
2022/09/01 07:58:18;;;;;;;17.00;15.02;;;;;;;21.48;100.00;96610.00;5030503;28;20076;-49
2022/09/01 08:00:48;;;;;;;17.17;14.15;;;;;;;23.00;100.00;96601.44;5026922;28;20084;-54
2022/09/01 08:03:19;;;;;;;16.38;14.55;;;;;;;22.54;100.00;96602.53;5029857;28;20080;-54
2022/09/01 08:05:52;;;;;;;16.35;14.20;;;;;;;23.06;100.00;96603.25;5030709;28;20069;-48
2022/09/01 08:08:22;;;;;;;15.10;13.52;;;;;;;23.09;100.00;96603.63;5026684;28;20108;-47
2022/09/01 08:10:56;;;;;;;15.93;13.85;;;;;;;23.86;100.00;96603.28;5024826;28;20085;-51
2022/09/01 08:13:32;;;;;;;14.52;13.13;;;;;;;23.48;100.00;96604.28;5030345;28;20536;-50
2022/09/01 08:16:09;;;;;;;13.40;12.10;;;;;;;23.10;100.00;96609.81;5026833;28;20084;-55
2022/09/01 08:18:46;;;;;;;12.77;11.48;;;;;;;24.02;100.00;96610.78;5030902;28;20508;-53
2022/09/01 08:21:18;;;;;;;12.23;11.07;;;;;;;24.30;100.00;96610.22;5026636;28;20084;-48
2022/09/01 08:23:47;;;;;;;12.57;11.38;;;;;;;24.09;100.00;96605.31;5022574;28;20111;-47
2022/09/01 08:26:18;;;;;;;12.02;10.82;;;;;;;24.31;100.00;96609.16;5030556;28;20077;-53
2022/09/01 08:28:46;;;;;;;12.68;11.40;;;;;;;23.88;100.00;96625.41;5028161;28;20073;-50
2022/09/01 08:31:23;;;;;;;11.40;10.20;;;;;;;23.69;100.00;96628.13;5024230;28;20091;-53
2022/09/01 08:33:53;;;;;;;14.30;12.90;;;;;;;22.53;100.00;96633.97;5028523;28;20144;-49
2022/09/01 08:36:21;;;;;;;13.35;11.38;;;;;;;23.33;100.00;96628.03;5029444;28;20076;-50
2022/09/01 08:38:54;;;;;;;14.43;11.50;;;;;;;24.26;100.00;96621.66;5029610;28;20081;-52
2022/09/01 08:41:31;;;;;;;9.68;8.75;;;;;;;22.63;100.00;96631.63;5029504;28;20069;-48
2022/09/01 08:44:09;;;;;;;9.63;8.00;;;;;;;22.72;100.00;96630.34;5027904;28;20069;-47
2022/09/01 08:46:40;;;;;;;12.07;8.88;;;;;;;23.74;100.00;96632.81;5029665;28;20077;-48
2022/09/01 08:49:14;;;;;;;9.45;8.45;;;;;;;24.38;100.00;96627.94;5029794;28;20081;-51
2022/09/01 08:51:54;;;;;;;9.68;8.77;;;;;;;24.05;100.00;96628.34;5023511;28;20532;-53
2022/09/01 08:54:25;;;;;;;10.55;8.73;;;;;;;25.00;100.00;96627.69;5029728;28;20077;-48
2022/09/01 08:57:01;;;;;;;7.57;6.78;;;;;;;24.45;100.00;96634.09;5027866;28;20468;-51
2022/09/01 08:59:30;;;;;;;7.28;6.47;;;;;;;23.79;100.00;96626.78;5029616;28;20077;-54
2022/09/01 09:02:06;;;;;;;7.15;6.43;;;;;;;24.99;100.00;96621.47;5029593;28;20081;-51
2022/09/01 09:04:48;;;;;;;9.00;8.02;;;;;;;23.89;100.00;96637.88;5029997;28;20088;-53
2022/09/01 09:07:25;;;;;;;8.30;7.45;;;;;;;23.93;100.00;96637.19;5028888;28;20127;-54
2022/09/01 09:09:58;;;;;;;9.30;7.80;;;;;;;24.67;100.00;96628.19;5022931;28;20477;-54
2022/09/01 09:12:39;;;;;;;8.27;7.47;;;;;;;23.85;100.00;96634.78;5029155;28;20085;-51
2022/09/01 09:15:22;;;;;;;8.90;7.97;;;;;;;24.40;100.00;96631.25;5029390;28;20069;-51
2022/09/01 09:17:58;;;;;;;9.30;8.27;;;;;;;24.20;100.00;96619.88;5024047;28;20485;-53
2022/09/01 09:20:28;;;;;;;10.68;8.32;;;;;;;24.22;100.00;96620.47;5023854;28;20081;-50
2022/09/01 09:22:56;;;;;;;9.60;8.60;;;;;;;24.61;100.00;96619.97;5029461;28;20452;-49
2022/09/01 09:25:29;;;;;;;9.80;8.70;;;;;;;23.43;100.00;96628.34;5023576;28;20057;-52
2022/09/01 09:27:58;;;;;;;9.55;8.52;;;;;;;24.89;100.00;96609.59;5028636;28;20075;-47
2022/09/01 09:30:31;;;;;;;8.00;7.20;;;;;;;25.25;100.00;96614.81;5023319;28;20536;-47
2022/09/01 09:33:03;;;;;;;8.77;7.72;;;;;;;26.59;100.00;96607.69;5029443;28;20283;-54
2022/09/01 09:35:53;;;;;;;12.00;9.80;;;;;;;25.52;100.00;96617.06;5029675;28;20092;-52
2022/09/01 09:38:29;;;;;;;9.90;9.00;;;;;;;24.61;100.00;96613.75;5029116;28;20081;-54
2022/09/01 09:41:01;;;;;;;9.43;8.48;;;;;;;25.55;100.00;96617.41;5023446;28;20084;-48
2022/09/01 09:43:54;;;;;;;9.52;8.43;;;;;;;24.99;100.00;96607.16;5024498;28;20076;-47
2022/09/01 09:46:26;;;;;;;10.07;8.05;;;;;;;26.00;91.19;96611.41;5028561;28;20175;-53
2022/09/01 09:49:13;;;;;;;9.98;8.75;;;;;;;26.13;100.00;96618.41;5028712;28;20068;-51
2022/09/01 09:51:47;;;;;;;9.48;7.72;;;;;;;24.96;100.00;96603.03;5027546;28;20092;-47
2022/09/01 09:54:19;;;;;;;9.20;7.70;;;;;;;25.64;100.00;96611.69;5024733;28;20108;-49
2022/09/01 09:56:49;;;;;;;8.30;7.30;;;;;;;24.77;98.88;96613.06;5028653;28;20081;-52
2022/09/01 09:59:23;;;;;;;7.75;6.97;;;;;;;24.84;100.00;96604.88;5028564;28;20065;-51
2022/09/01 10:02:21;;;;;;;7.57;6.70;;;;;;;24.31;100.00;96608.31;5028182;28;20080;-49
2022/09/01 10:04:56;;;;;;;9.10;6.65;;;;;;;24.94;100.00;96609.72;5029244;28;20092;-49
2022/09/01 10:07:32;;;;;;;7.97;7.27;;;;;;;24.84;100.00;96591.41;5018833;28;20073;-51
2022/09/01 10:10:01;;;;;;;7.70;6.07;;;;;;;25.21;98.78;96602.03;5028107;28;20491;-53
2022/09/01 10:12:33;;;;;;;7.53;6.72;;;;;;;24.65;100.00;96596.06;5026355;28;20100;-48
2022/09/01 10:15:06;;;;;;;7.18;6.30;;;;;;;25.46;100.00;96601.81;5017158;28;20441;-54
2022/09/01 10:17:43;;;;;;;6.80;6.10;;;;;;;24.42;100.00;96604.06;5028932;28;20085;-53
2022/09/01 10:20:15;;;;;;;7.15;5.85;;;;;;;24.58;100.00;96608.81;5028346;28;20073;-47
2022/09/01 10:22:45;;;;;;;6.13;5.32;;;;;;;25.26;100.00;96600.28;5026016;28;20050;-48
2022/09/01 10:25:20;;;;;;;6.90;6.15;;;;;;;24.35;100.00;96599.53;5022955;28;20073;-51
2022/09/01 10:27:52;;;;;;;8.60;5.80;;;;;;;24.78;100.00;96582.38;5026861;28;20077;-53
2022/09/01 10:30:22;;;;;;;6.35;5.75;;;;;;;26.13;94.68;96588.69;5024710;28;20061;-50
2022/09/01 10:32:53;;;;;;;5.88;4.95;;;;;;;26.01;83.15;96586.00;5027898;28;20096;-53
2022/09/01 10:35:26;;;;;;;7.10;5.90;;;;;;;25.18;93.29;96587.13;5027403;28;20108;-50
2022/09/01 10:37:55;;;;;;;5.90;5.30;;;;;;;26.07;84.29;96578.81;5028648;28;20518;-51
2022/09/01 10:40:39;;;;;;;6.80;5.38;;;;;;;25.72;83.25;96576.19;5028117;28;20080;-49
2022/09/01 10:43:30;;;;;;;4.47;3.92;;;;;;;25.87;75.86;96578.41;5027563;28;20069;-49
2022/09/01 10:46:45;;;;;;;3.60;3.22;;;;;;;25.70;72.63;96581.81;5023227;28;20107;-49
2022/09/01 10:49:34;;;;;;;4.63;4.10;;;;;;;26.05;72.21;96575.56;5005375;28;20085;-50
2022/09/01 10:52:03;;;;;;;5.45;4.22;;;;;;;26.28;71.19;96566.53;5026987;28;20072;-47
2022/09/01 10:54:59;;;;;;;5.40;4.00;;;;;;;26.26;69.31;96569.47;5025002;28;20062;-47
2022/09/01 10:57:49;;;;;;;4.85;4.07;;;;;;;26.18;70.72;96575.25;5025088;28;20081;-51
2022/09/01 11:00:36;;;;;;;;;;;;;;;26.56;67.99;96565.72;5028599;28;20061;-52
2022/09/01 11:03:52;;;;;;;4.03;3.63;;;;;;;27.40;60.59;96565.75;5029103;28;19983;-48
2022/09/01 11:07:00;;;;;;;4.32;3.92;;;;;;;26.87;63.55;96569.75;5029721;28;20083;-49
2022/09/01 11:09:47;;;;;;;5.22;4.10;;;;;;;27.39;58.95;96569.53;5028324;28;20075;-52
2022/09/01 11:12:44;;;;;;;4.38;3.97;;;;;;;27.20;58.97;96568.97;5024850;28;20077;-51
2022/09/01 11:15:35;;;;;;;5.78;3.88;;;;;;;26.85;64.12;96566.50;5031725;28;20069;-51
2022/09/01 11:18:10;;;;;;;4.72;3.92;;;;;;;26.88;65.72;96571.41;5025952;28;20097;-52
2022/09/01 11:20:40;;;;;;;5.28;3.92;;;;;;;26.73;68.20;96566.56;5031207;28;20087;-53
2022/09/01 11:23:13;;;;;;;4.73;3.80;;;;;;;27.83;63.11;96574.22;5028702;28;20476;-54
2022/09/01 11:25:44;;;;;;;7.25;4.10;;;;;;;26.45;72.50;96577.38;5031557;28;20503;-51
2022/09/01 11:28:41;;;;;;;7.25;4.05;;;;;;;26.08;75.21;96585.88;5031345;28;20064;-53
2022/09/01 11:31:29;;;;;;;6.78;4.07;;;;;;;27.06;68.68;96572.25;5025438;28;20424;-52
2022/09/01 11:34:05;;;;;;;4.38;3.50;;;;;;;27.25;62.05;96562.00;5028180;28;20076;-51
2022/09/01 11:36:37;;;;;;;3.50;2.88;;;;;;;26.34;63.23;96562.84;5031477;28;20287;-53
2022/09/01 11:39:09;;;;;;;5.60;3.25;;;;;;;26.97;61.20;96558.28;5031650;28;20092;-53
2022/09/01 11:41:49;;;;;;;4.50;3.25;;;;;;;26.80;63.05;96562.88;5030569;28;20523;-52
2022/09/01 11:44:26;;;;;;;5.38;3.28;;;;;;;27.23;60.31;96569.56;5026379;28;20100;-52
2022/09/01 11:46:58;;;;;;;5.50;3.38;;;;;;;27.25;58.11;96564.69;5027169;28;20073;-51
2022/09/01 11:49:31;;;;;;;3.80;2.90;;;;;;;27.76;58.99;96566.25;5030913;28;20069;-54
2022/09/01 11:52:01;;;;;;;4.25;3.85;;;;;;;26.56;63.10;96571.13;5029098;28;20073;-54